createdAt,value
2022-11-14T00:05:07.474Z,26.1
2022-11-14T00:10:58.982Z,29.7
2022-11-14T00:16:49.444Z,26.4
2022-11-14T00:22:40.054Z,26.9
2022-11-14T00:28:33.556Z,26.8
2022-11-14T00:34:23.929Z,25.3
2022-11-14T00:40:16.584Z,24.2
2022-11-14T00:46:07.365Z,21.9
2022-11-14T00:51:59.328Z,22.3
2022-11-14T00:57:49.281Z,23.5
2022-11-14T01:03:40.584Z,25.8
2022-11-14T01:09:32.490Z,25.6
2022-11-14T01:15:23.355Z,24.2
2022-11-14T01:21:16.821Z,21.8
2022-11-14T01:27:08.252Z,19.8
2022-11-14T01:32:59.111Z,18.1
2022-11-14T01:38:49.379Z,18.4
2022-11-14T01:44:40.507Z,22.1
2022-11-14T01:50:38.248Z,20.5
2022-11-14T01:56:28.736Z,23
2022-11-14T02:02:20.518Z,21.5
2022-11-14T02:08:12.472Z,19.9
2022-11-14T02:14:02.743Z,20.2
2022-11-14T02:19:53.110Z,20.7
2022-11-14T02:25:45.287Z,22.3
2022-11-14T02:31:36.049Z,25.2
2022-11-14T02:37:26.578Z,23.8
2022-11-14T02:43:19.546Z,22.9
2022-11-14T02:49:09.848Z,22.6
2022-11-14T02:55:02.657Z,23.8
2022-11-14T03:01:26.441Z,23.5
2022-11-14T03:07:14.586Z,25.8
2022-11-14T03:13:03.691Z,28.7
2022-11-14T03:18:53.106Z,28.8
2022-11-14T03:24:44.208Z,28.6
2022-11-14T03:30:34.441Z,29
2022-11-14T03:36:25.745Z,28.2
2022-11-14T03:42:17.425Z,31.1
2022-11-14T03:48:09.448Z,30.9
2022-11-14T03:54:01.784Z,31.7
2022-11-14T04:00:12.328Z,32.4
2022-11-14T04:06:06.883Z,29.7
2022-11-14T04:12:19.993Z,28.5
2022-11-14T04:18:29.741Z,26.6
2022-11-14T04:24:30.353Z,24.7
2022-11-14T04:30:41.644Z,26.6
2022-11-14T04:36:59.105Z,30.6
2022-11-14T04:42:50.724Z,30.2
2022-11-14T04:48:43.854Z,27.7
2022-11-14T04:54:47.775Z,23.2
2022-11-14T05:00:39.781Z,22.3
2022-11-14T05:06:32.775Z,22.7
2022-11-14T05:12:31.097Z,23
2022-11-14T05:18:22.441Z,23
2022-11-14T05:24:14.550Z,23.4
2022-11-14T05:30:07.086Z,27.8
2022-11-14T05:36:00.867Z,30.2
2022-11-14T05:41:57.715Z,30.3
2022-11-14T05:47:53.201Z,33.4
2022-11-14T05:53:49.087Z,32.2
2022-11-14T05:59:40.566Z,29.9
2022-11-14T06:05:42.271Z,29.8
2022-11-14T06:11:34.088Z,31.3
2022-11-14T06:17:27.340Z,30.9
2022-11-14T06:23:27.656Z,31.8
2022-11-14T06:29:18.274Z,32.1
2022-11-14T06:35:10.573Z,32.1
2022-11-14T06:41:05.578Z,32.4
2022-11-14T06:46:57.044Z,33.7
2022-11-14T06:52:51.201Z,47.1
2022-11-14T06:58:44.597Z,34.3
2022-11-14T07:04:36.858Z,33.2
2022-11-14T07:10:27.456Z,34.1
2022-11-14T07:16:19.718Z,35.9
2022-11-14T07:22:11.280Z,35.1
2022-11-14T07:28:02.941Z,33.3
2022-11-14T07:33:56.013Z,33.1
2022-11-14T07:39:47.458Z,32.2
2022-11-14T07:45:48.348Z,31
2022-11-14T07:51:46.073Z,33
2022-11-14T07:57:51.070Z,33.4
2022-11-14T08:03:48.735Z,32.6
2022-11-14T08:09:43.557Z,33
2022-11-14T08:15:33.220Z,30.1
2022-11-14T08:21:22.040Z,28.8
2022-11-14T08:27:13.043Z,32.6
2022-11-14T08:33:07.055Z,30.8
2022-11-14T08:39:09.387Z,30.8
2022-11-14T08:45:03.572Z,31.7
2022-11-14T08:50:54.836Z,35.5
2022-11-14T08:56:50.118Z,34.6
2022-11-14T09:02:44.256Z,31.9
2022-11-14T09:08:41.488Z,31.8
2022-11-14T09:14:32.474Z,31.1
2022-11-14T09:20:37.489Z,31.5
2022-11-14T09:26:42.309Z,46.2
2022-11-14T09:32:38.688Z,33.1
2022-11-14T09:38:32.839Z,36.5
2022-11-14T09:44:28.322Z,33.3
2022-11-14T09:50:29.124Z,33
2022-11-14T09:56:22.451Z,32.9
2022-11-14T10:02:15.423Z,36.4
2022-11-14T10:08:09.654Z,34.7
2022-11-14T10:14:00.589Z,33
2022-11-14T10:19:52.048Z,31.9
2022-11-14T10:25:49.671Z,35.9
2022-11-14T10:31:46.433Z,31.9
2022-11-14T10:37:38.844Z,34.2
2022-11-14T10:43:31.590Z,35.8
2022-11-14T10:49:23.182Z,34.9
2022-11-14T10:55:15.009Z,32
2022-11-14T11:01:07.084Z,32.2
2022-11-14T11:07:00.087Z,42.3
2022-11-14T11:13:03.927Z,34.1
2022-11-14T11:18:59.620Z,33.9
2022-11-14T11:24:52.458Z,36.6
2022-11-14T11:38:39.877Z,38.6
2022-11-14T11:45:09.048Z,35
2022-11-14T11:58:21.446Z,38.1
2022-11-14T12:04:24.393Z,34.8
2022-11-14T12:10:30.992Z,30.8
2022-11-14T12:16:39.596Z,30.7
2022-11-14T12:22:31.025Z,33.8
2022-11-14T12:28:28.213Z,48
2022-11-14T12:34:24.370Z,37.1
2022-11-14T12:40:21.558Z,32.9
2022-11-14T12:46:24.968Z,31.5
2022-11-14T12:52:28.741Z,31.4
2022-11-14T12:58:24.269Z,30
2022-11-14T13:04:19.859Z,29.1
2022-11-14T13:10:20.922Z,29.6
2022-11-14T13:16:15.872Z,29.1
2022-11-14T13:22:09.151Z,31.2
2022-11-14T13:28:31.704Z,29.7
2022-11-14T13:34:22.580Z,28.7
2022-11-14T13:40:18.834Z,27.8
2022-11-14T13:46:49.077Z,26.9
2022-11-14T13:52:41.694Z,25.9
2022-11-14T13:59:14.310Z,26.4
2022-11-14T14:05:13.795Z,25.9
2022-11-14T14:11:32.956Z,25.2
2022-11-14T14:17:30.930Z,25.5
2022-11-14T14:23:36.736Z,25.1
2022-11-14T14:29:49.700Z,44.3
2022-11-14T14:43:03.541Z,26.8
2022-11-14T14:49:10.902Z,24.2
2022-11-14T14:55:08.680Z,24.2
2022-11-14T15:01:18.356Z,23.5
2022-11-14T15:07:13.544Z,24.6
2022-11-14T15:13:06.680Z,27.2
2022-11-14T15:19:00.131Z,24.5
2022-11-14T15:25:00.187Z,24.8
2022-11-14T15:30:54.457Z,26.4
2022-11-14T15:38:10.671Z,26
2022-11-14T15:44:13.104Z,27.3
2022-11-14T15:50:06.084Z,27.2
2022-11-14T15:56:00.123Z,27.4
2022-11-14T16:02:05.440Z,27.4
2022-11-14T16:07:57.725Z,29.4
2022-11-14T16:13:50.036Z,28
2022-11-14T16:19:59.869Z,27.9
2022-11-14T16:26:03.755Z,29.7
2022-11-14T16:31:53.984Z,30.5
2022-11-14T16:37:46.338Z,28.2
2022-11-14T16:43:40.699Z,27.6
2022-11-14T16:49:34.887Z,28.6
2022-11-14T16:55:29.590Z,27.8
2022-11-14T17:01:39.828Z,27.7
2022-11-14T17:07:32.955Z,27.9
2022-11-14T17:13:32.496Z,23.6
2022-11-14T17:19:22.187Z,22.4
2022-11-14T17:25:17.841Z,20.8
2022-11-14T17:31:15.874Z,22.7
2022-11-14T17:37:09.785Z,20.8
2022-11-14T17:43:11.447Z,20.3
2022-11-14T17:49:04.612Z,19.8
2022-11-14T17:54:58.762Z,19.2
2022-11-14T18:00:53.738Z,19.5
2022-11-14T18:07:01.159Z,17.7
2022-11-14T18:12:56.516Z,18.5
2022-11-14T18:18:48.603Z,18.2
2022-11-14T18:24:44.335Z,18.6
2022-11-14T18:31:04.362Z,17.2
2022-11-14T18:37:07.333Z,16.7
2022-11-14T18:43:00.415Z,16.3
2022-11-14T18:48:58.080Z,17.8
2022-11-14T18:55:13.818Z,16.4
2022-11-14T19:01:08.046Z,16.7
2022-11-14T19:07:14.912Z,16.7
2022-11-14T19:13:09.828Z,15.5
2022-11-14T19:19:23.266Z,14.7
2022-11-14T19:25:17.210Z,15.3
2022-11-14T19:31:12.013Z,14.5
2022-11-14T19:37:11.602Z,15.4
2022-11-14T19:43:12.915Z,14.5
2022-11-14T19:49:21.840Z,14.3
2022-11-14T19:55:15.610Z,14.8
2022-11-14T20:01:10.810Z,15.3
2022-11-14T20:07:13.453Z,14
2022-11-14T20:13:10.826Z,14.9
2022-11-14T20:19:11.419Z,14.9
2022-11-14T20:25:06.061Z,15.2
2022-11-14T20:30:58.454Z,15.5
2022-11-14T20:37:21.149Z,15.4
2022-11-14T20:43:14.542Z,15.4
2022-11-14T20:49:50.120Z,15.8
2022-11-14T20:55:41.815Z,16.1
2022-11-14T21:01:58.417Z,15.6
2022-11-14T21:14:08.845Z,16
2022-11-14T21:20:10.437Z,16.3
2022-11-14T21:26:04.063Z,15.7
2022-11-14T21:31:55.779Z,15.3
2022-11-14T21:37:47.435Z,16.4
2022-11-14T21:43:46.531Z,15.7
2022-11-14T21:49:48.129Z,16
2022-11-14T21:55:54.487Z,16.5
2022-11-14T22:01:44.749Z,16
2022-11-14T22:07:36.212Z,16.1
2022-11-14T22:13:29.393Z,15
2022-11-14T22:19:19.318Z,15.7
2022-11-14T22:25:10.208Z,15.4
2022-11-14T22:31:01.105Z,15.8
2022-11-14T22:36:55.657Z,15.8
2022-11-14T22:42:52.222Z,15.7
2022-11-14T22:48:51.064Z,16.3
2022-11-14T22:54:43.034Z,16.8
2022-11-14T23:00:36.774Z,16.6
2022-11-14T23:07:07.736Z,16.6
2022-11-14T23:13:01.815Z,16.8
2022-11-14T23:18:54.730Z,17.2
2022-11-14T23:24:43.270Z,16.6
2022-11-14T23:30:43.392Z,17.6
2022-11-14T23:36:35.054Z,17
2022-11-14T23:42:28.560Z,18
2022-11-14T23:48:26.163Z,18.7
2022-11-14T23:54:45.130Z,18.2
